Time;durP1;ratioP1;P1;durP2;ratioP2;P2;SDS_P1;SDS_P2;PMS_P1;PMS_P2;Temp;Humidity;BMP_temperature;BMP_pressure;BME280_temperature;BME280_humidity;BME280_pressure;Samples;Min_cycle;Max_cycle;Signal;HPM_P1;HPM_P2
2023/03/12 00:01:21;;;;;;;14.60;8.60;;;;;;;-1.71;77.56;99043.13;103423;1253;138494;-68
2023/03/12 00:03:52;;;;;;;17.80;9.20;;;;;;;-1.72;77.85;99045.52;102729;1255;1003175;-69
2023/03/12 00:06:21;;;;;;;15.30;8.20;;;;;;;-1.73;77.74;99049.09;103397;1256;138369;-70
2023/03/12 00:09:00;;;;;;;15.30;8.80;;;;;;;-1.73;77.72;99041.93;103449;1254;107696;-70
2023/03/12 00:11:30;;;;;;;15.10;9.10;;;;;;;-1.73;78.06;99043.81;103314;1253;138436;-70
2023/03/12 00:13:59;;;;;;;19.10;9.40;;;;;;;-1.74;78.29;99036.32;102721;1253;1003778;-70
2023/03/12 00:16:30;;;;;;;19.00;9.90;;;;;;;-1.74;78.70;99039.90;103374;1256;107790;-70
2023/03/12 00:19:06;;;;;;;17.80;10.50;;;;;;;-1.74;78.82;99037.85;102474;1253;1003048;-70
2023/03/12 00:21:54;;;;;;;16.40;10.50;;;;;;;-1.72;78.98;99040.73;103406;1253;108883;-70
2023/03/12 00:24:24;;;;;;;15.60;9.80;;;;;;;-1.70;79.39;99036.80;103169;1252;138391;-69
2023/03/12 00:26:54;;;;;;;16.40;10.30;;;;;;;-1.68;79.33;99034.08;102626;1256;1003330;-69
2023/03/12 00:29:21;;;;;;;16.60;9.70;;;;;;;-1.67;79.54;99029.46;103320;1256;139615;-70
2023/03/12 00:31:50;;;;;;;17.90;9.70;;;;;;;-1.66;79.73;99025.55;103467;1253;94910;-69
2023/03/12 00:34:17;;;;;;;19.90;10.70;;;;;;;-1.67;79.94;99024.52;103720;1256;106467;-70
2023/03/12 00:36:45;;;;;;;16.40;10.60;;;;;;;-1.67;80.00;99024.52;103399;1253;138376;-70
2023/03/12 00:39:12;;;;;;;16.80;10.70;;;;;;;-1.69;80.16;99018.91;103545;1256;110087;-70
2023/03/12 00:41:39;;;;;;;20.50;10.70;;;;;;;-1.69;80.41;99012.60;103320;1256;138727;-70
2023/03/12 00:44:07;;;;;;;17.10;10.90;;;;;;;-1.69;80.36;99015.50;103407;1256;99910;-70
2023/03/12 00:46:34;;;;;;;20.00;12.00;;;;;;;-1.70;80.62;99013.98;102733;1253;1003011;-70
2023/03/12 00:49:01;;;;;;;19.60;11.00;;;;;;;-1.70;80.58;99012.44;103284;1256;138517;-70
2023/03/12 00:51:49;;;;;;;21.20;12.20;;;;;;;-1.69;80.57;99020.78;103371;1253;111143;-70
2023/03/12 00:54:16;;;;;;;22.40;12.20;;;;;;;-1.70;81.06;99010.39;102399;1254;1002914;-70
2023/03/12 00:56:45;;;;;;;22.20;12.50;;;;;;;-1.70;81.02;99018.23;103209;1259;98165;-70
2023/03/12 00:59:12;;;;;;;19.60;12.30;;;;;;;-1.71;81.39;99013.98;102619;1253;1002790;-70
2023/03/12 01:01:41;;;;;;;20.40;12.60;;;;;;;-1.71;81.05;99010.73;102540;1253;1002841;-70
2023/03/12 01:04:29;;;;;;;23.00;13.70;;;;;;;-1.71;81.26;99004.77;103350;1253;112006;-70
2023/03/12 01:07:16;;;;;;;22.50;14.00;;;;;;;-1.70;81.61;99005.29;103319;1256;138332;-70
2023/03/12 01:09:44;;;;;;;21.00;13.40;;;;;;;-1.69;81.59;99002.04;102999;1253;376815;-70
2023/03/12 01:12:11;;;;;;;19.90;12.60;;;;;;;-1.66;81.71;99006.63;103294;1256;138388;-70
2023/03/12 01:14:59;;;;;;;20.60;12.90;;;;;;;-1.64;81.50;99004.92;103474;1253;96431;-70
2023/03/12 01:17:26;;;;;;;23.70;13.30;;;;;;;-1.63;81.67;99000.83;103177;1257;138292;-70
2023/03/12 01:19:56;;;;;;;21.40;13.00;;;;;;;-1.62;81.76;99003.54;103421;1254;108267;-70
2023/03/12 01:22:44;;;;;;;19.60;12.70;;;;;;;-1.60;81.64;98995.55;102669;1256;1003355;-70
2023/03/12 01:25:22;;;;;;;21.30;13.10;;;;;;;-1.58;81.59;98994.35;103233;1253;138551;-70
2023/03/12 01:27:52;;;;;;;22.60;13.60;;;;;;;-1.57;81.68;98994.00;103397;1256;96433;-69
2023/03/12 01:30:23;;;;;;;25.10;13.50;;;;;;;-1.55;81.61;98991.78;103429;1252;138073;-69
2023/03/12 01:32:54;;;;;;;22.60;13.20;;;;;;;-1.54;81.56;98984.61;103329;1257;107758;-70
2023/03/12 01:35:25;;;;;;;24.50;13.10;;;;;;;-1.53;81.58;98987.16;103412;1253;138490;-69
2023/03/12 01:37:54;;;;;;;20.20;13.20;;;;;;;-1.51;81.59;98981.02;103472;1256;106704;-69
2023/03/12 01:40:27;;;;;;;21.90;13.50;;;;;;;-1.49;81.46;98975.21;102661;1253;1003618;-69
2023/03/12 01:42:57;;;;;;;24.10;12.80;;;;;;;-1.46;81.66;98971.61;102500;1259;1002757;-69
2023/03/12 01:45:58;;;;;;;20.60;13.30;;;;;;;-1.43;81.24;98968.38;103392;1259;106760;-69
2023/03/12 01:48:27;;;;;;;20.90;12.50;;;;;;;-1.39;81.45;98963.25;103224;1257;138527;-70
2023/03/12 01:51:17;;;;;;;20.50;12.70;;;;;;;-1.36;81.36;98962.04;103447;1253;109673;-69
2023/03/12 01:53:51;;;;;;;21.50;13.50;;;;;;;-1.32;81.38;98965.59;103304;1254;138451;-69
2023/03/12 01:56:32;;;;;;;22.00;12.30;;;;;;;-1.29;81.39;98968.12;103440;1256;109325;-70
2023/03/12 01:59:23;;;;;;;26.10;12.90;;;;;;;-1.25;81.39;98968.63;103293;1253;138405;-70
2023/03/12 02:02:02;;;;;;;21.50;12.90;;;;;;;-1.21;81.21;98971.51;103586;1252;96479;-70
2023/03/12 02:04:31;;;;;;;20.00;13.30;;;;;;;-1.16;80.98;98964.66;104305;1256;107594;-69
2023/03/12 02:07:03;;;;;;;20.60;13.40;;;;;;;-1.14;81.15;98968.73;103468;1254;138368;-69
2023/03/12 02:09:36;;;;;;;19.20;13.30;;;;;;;-1.10;81.03;98978.59;103265;1257;107728;-69
2023/03/12 02:12:04;;;;;;;22.60;12.20;;;;;;;-1.05;81.04;98975.17;103218;1257;138614;-69
2023/03/12 02:14:52;;;;;;;21.30;12.10;;;;;;;-1.01;80.97;98973.61;103488;1253;96961;-69
2023/03/12 02:17:40;;;;;;;19.00;11.80;;;;;;;-0.99;80.93;98976.84;103365;1256;138381;-69
2023/03/12 02:20:17;;;;;;;18.50;11.50;;;;;;;-0.97;80.93;98977.84;103421;1257;96440;-69
2023/03/12 02:23:05;;;;;;;18.80;11.50;;;;;;;-0.98;80.87;98980.41;102725;1257;1002573;-70
2023/03/12 02:25:39;;;;;;;17.60;11.20;;;;;;;-0.99;80.87;98979.39;103278;1258;138423;-70
2023/03/12 02:28:29;;;;;;;20.30;11.20;;;;;;;-0.99;80.74;98979.91;102605;1257;1003069;-69
2023/03/12 02:31:21;;;;;;;16.60;10.80;;;;;;;-1.01;80.74;98991.18;103282;1254;138584;-70
2023/03/12 02:33:54;;;;;;;19.00;11.60;;;;;;;-1.00;80.72;98989.80;103247;1254;96527;-70
2023/03/12 02:36:42;;;;;;;16.30;10.40;;;;;;;-1.00;80.86;98986.56;103239;1254;138127;-70
2023/03/12 02:39:30;;;;;;;16.70;11.00;;;;;;;-0.99;80.94;98985.02;103387;1256;108726;-70
2023/03/12 02:42:08;;;;;;;18.10;11.00;;;;;;;-0.98;80.85;98986.21;103260;1257;138320;-70
2023/03/12 02:44:46;;;;;;;17.80;10.30;;;;;;;-0.96;80.79;98985.51;103404;1254;107292;-70
2023/03/12 02:47:21;;;;;;;;;;;;;;;-0.97;80.57;98989.62;103212;1259;139004;-70
2023/03/12 02:49:59;;;;;;;15.10;9.80;;;;;;;-1.00;80.69;98987.42;103472;1254;110673;-69
2023/03/12 02:52:36;;;;;;;18.00;10.30;;;;;;;-1.01;80.71;98988.10;102545;1258;1003252;-70
2023/03/12 02:55:09;;;;;;;16.60;10.10;;;;;;;-1.01;80.70;98987.94;103272;1256;138441;-70
2023/03/12 02:57:57;;;;;;;18.00;10.20;;;;;;;-1.02;80.81;98984.36;103383;1256;109069;-70
2023/03/12 03:00:45;;;;;;;16.50;10.20;;;;;;;-1.03;80.83;98987.78;103341;1256;138331;-69
2023/03/12 03:03:25;;;;;;;16.00;9.50;;;;;;;-1.04;80.77;98989.16;103360;1253;109463;-70
2023/03/12 03:05:52;;;;;;;15.60;9.80;;;;;;;-1.04;80.79;98989.84;103078;1253;138448;-69
2023/03/12 03:08:41;;;;;;;15.40;8.90;;;;;;;-1.04;80.87;98988.81;103445;1254;96947;-68
2023/03/12 03:11:11;;;;;;;14.80;9.10;;;;;;;-1.01;80.77;98989.30;103386;1255;107488;-68
2023/03/12 03:13:52;;;;;;;13.10;8.80;;;;;;;-0.99;80.84;98997.14;102610;1253;1003516;-69
2023/03/12 03:16:30;;;;;;;17.20;9.30;;;;;;;-0.97;80.87;98999.52;103398;1254;110874;-68
2023/03/12 03:18:58;;;;;;;13.90;8.80;;;;;;;-0.95;80.87;99003.58;101718;1257;1003251;-69
2023/03/12 03:21:45;;;;;;;13.40;9.10;;;;;;;-0.92;80.98;99004.94;102707;1254;1003710;-69
2023/03/12 03:24:26;;;;;;;12.90;8.60;;;;;;;-0.88;80.95;99007.16;103337;1254;138042;-69
2023/03/12 03:27:13;;;;;;;15.20;8.90;;;;;;;-0.87;80.78;99020.63;103309;1255;96453;-69
2023/03/12 03:29:44;;;;;;;12.90;8.50;;;;;;;-0.85;80.69;99015.14;103243;1254;138471;-69
2023/03/12 03:32:21;;;;;;;15.40;8.60;;;;;;;-0.82;80.61;99023.49;103307;1256;107623;-69
2023/03/12 03:34:51;;;;;;;13.60;8.80;;;;;;;-0.79;80.58;99028.41;103334;1257;96462;-69
2023/03/12 03:37:39;;;;;;;16.90;8.70;;;;;;;-0.77;80.51;99025.66;103256;1254;137747;-69
2023/03/12 03:40:11;;;;;;;13.20;8.60;;;;;;;-0.76;80.48;99034.02;103358;1253;96485;-69
2023/03/12 03:42:57;;;;;;;14.40;8.40;;;;;;;-0.77;80.40;99021.58;102527;1253;1003336;-69
2023/03/12 03:45:35;;;;;;;15.60;9.00;;;;;;;-0.76;80.44;99034.19;103367;1257;107438;-69
2023/03/12 03:48:23;;;;;;;14.10;8.40;;;;;;;-0.76;80.27;99026.85;103307;1253;137951;-69
2023/03/12 03:51:04;;;;;;;16.10;9.10;;;;;;;-0.77;80.30;99037.27;102677;1254;1003054;-69
2023/03/12 03:53:52;;;;;;;15.30;8.90;;;;;;;-0.77;80.42;99027.89;103282;1256;138231;-69
2023/03/12 03:56:39;;;;;;;12.60;8.20;;;;;;;-0.78;80.21;99036.77;103412;1253;110507;-69
2023/03/12 03:59:27;;;;;;;14.50;9.00;;;;;;;-0.77;80.39;99038.30;102396;1253;1003158;-69
2023/03/12 04:02:15;;;;;;;13.50;9.20;;;;;;;-0.75;80.24;99039.47;103348;1254;97188;-69
2023/03/12 04:05:03;;;;;;;14.50;9.00;;;;;;;-0.74;80.23;99045.11;103390;1254;107922;-69
2023/03/12 04:07:30;;;;;;;13.80;8.90;;;;;;;-0.72;80.46;99045.61;103207;1253;138241;-69
2023/03/12 04:09:58;;;;;;;15.10;8.90;;;;;;;-0.72;80.23;99053.11;103346;1257;110172;-69
2023/03/12 04:12:45;;;;;;;15.60;8.90;;;;;;;-0.71;80.42;99056.71;102506;1255;1002985;-69
2023/03/12 04:15:33;;;;;;;13.40;8.50;;;;;;;-0.70;80.27;99054.66;103417;1254;98127;-69
2023/03/12 04:18:21;;;;;;;15.30;8.40;;;;;;;-0.68;80.50;99051.91;103268;1256;137956;-70
2023/03/12 04:21:11;;;;;;;16.60;8.50;;;;;;;-0.66;80.54;99053.44;103401;1257;96417;-69
2023/03/12 04:23:48;;;;;;;14.10;8.30;;;;;;;-0.64;80.29;99054.78;103347;1257;139339;-68
2023/03/12 04:26:36;;;;;;;11.50;8.20;;;;;;;-0.63;80.45;99055.79;102589;1257;1003053;-69
2023/03/12 04:29:23;;;;;;;13.80;7.90;;;;;;;-0.61;80.26;99058.69;103309;1256;96980;-69
2023/03/12 04:31:54;;;;;;;11.00;7.90;;;;;;;-0.61;80.45;99059.36;102633;1253;1003266;-69
2023/03/12 04:34:24;;;;;;;12.70;7.30;;;;;;;-0.59;80.41;99059.02;103334;1254;96769;-69
2023/03/12 04:37:13;;;;;;;13.20;7.90;;;;;;;-0.58;80.44;99053.54;103248;1254;137840;-69
2023/03/12 04:40:04;;;;;;;12.80;6.80;;;;;;;-0.56;80.40;99059.34;103398;1256;108599;-69
2023/03/12 04:42:52;;;;;;;11.10;7.80;;;;;;;-0.55;80.33;99056.08;103275;1257;137936;-69
2023/03/12 04:45:29;;;;;;;12.40;7.50;;;;;;;-0.51;80.39;99051.29;103377;1256;108264;-69
2023/03/12 04:48:17;;;;;;;10.80;7.20;;;;;;;-0.49;80.25;99048.20;103246;1253;138056;-69
2023/03/12 04:51:05;;;;;;;12.80;7.60;;;;;;;-0.48;80.25;99051.61;103416;1253;111030;-69
2023/03/12 04:53:53;;;;;;;12.40;7.50;;;;;;;-0.45;80.23;99052.45;102520;1253;1003325;-69
2023/03/12 04:56:23;;;;;;;11.90;7.50;;;;;;;-0.44;80.38;99048.84;103326;1253;96319;-69
2023/03/12 04:58:53;;;;;;;14.70;7.70;;;;;;;-0.42;80.41;99049.52;103414;1256;106353;-70
2023/03/12 05:01:41;;;;;;;11.80;6.90;;;;;;;-0.40;80.24;99057.34;103289;1253;137944;-70
2023/03/12 05:04:24;;;;;;;11.20;7.70;;;;;;;-0.40;80.23;99057.52;103327;1253;109866;-70
2023/03/12 05:07:12;;;;;;;10.40;7.60;;;;;;;-0.38;80.32;99057.49;103220;1257;138036;-69
2023/03/12 05:09:52;;;;;;;10.90;7.20;;;;;;;-0.36;80.37;99057.67;102632;1256;1002736;-69
2023/03/12 05:12:39;;;;;;;12.80;7.00;;;;;;;-0.35;80.38;99059.03;102868;1260;138226;-69
2023/03/12 05:15:11;;;;;;;12.10;7.10;;;;;;;-0.33;80.37;99060.73;102950;1262;96458;-69
2023/03/12 05:17:58;;;;;;;12.10;7.30;;;;;;;-0.33;80.28;99065.70;102834;1256;138296;-69
2023/03/12 05:20:46;;;;;;;14.20;7.10;;;;;;;-0.34;80.25;99063.13;103009;1256;107510;-70
2023/03/12 05:23:34;;;;;;;13.80;7.10;;;;;;;-0.34;80.41;99059.02;102914;1259;138331;-70
2023/03/12 05:26:02;;;;;;;17.00;7.20;;;;;;;-0.32;80.42;99066.19;102324;1256;1003059;-69
2023/03/12 05:28:49;;;;;;;9.40;6.50;;;;;;;-0.30;80.39;99064.80;103040;1256;96540;-69
2023/03/12 05:31:36;;;;;;;13.30;7.40;;;;;;;-0.29;80.24;99066.85;102855;1257;137673;-70
2023/03/12 05:34:24;;;;;;;11.50;6.90;;;;;;;-0.27;80.48;99066.82;103018;1256;108698;-69
2023/03/12 05:37:12;;;;;;;11.00;7.60;;;;;;;-0.26;80.45;99071.42;102929;1260;137909;-70
2023/03/12 05:39:59;;;;;;;12.40;6.90;;;;;;;-0.23;80.51;99077.72;102938;1256;108582;-70
2023/03/12 05:42:46;;;;;;;13.40;7.40;;;;;;;-0.21;80.55;99081.13;101437;1260;1002993;-70
2023/03/12 05:45:18;;;;;;;11.30;6.80;;;;;;;-0.21;80.37;99083.34;103285;1252;109932;-70
2023/03/12 05:48:06;;;;;;;10.40;6.60;;;;;;;-0.21;80.37;99082.99;103243;1255;138198;-70
2023/03/12 05:50:51;;;;;;;;;;;;;;;-0.20;80.48;99078.88;103370;1256;96471;-70
2023/03/12 05:53:39;;;;;;;11.00;6.50;;;;;;;-0.20;80.35;99076.48;103276;1253;124345;-70
2023/03/12 05:56:19;;;;;;;12.60;6.70;;;;;;;-0.18;80.35;99081.28;103349;1253;96596;-70
2023/03/12 05:58:49;;;;;;;10.50;7.00;;;;;;;-0.16;80.23;99080.75;103287;1253;110399;-70
2023/03/12 06:01:28;;;;;;;10.30;6.60;;;;;;;-0.15;80.17;99082.80;103199;1253;137887;-69
2023/03/12 06:03:58;;;;;;;11.40;6.60;;;;;;;-0.13;80.29;99093.03;102516;1253;1003574;-70
2023/03/12 06:06:26;;;;;;;10.40;6.30;;;;;;;-0.11;80.17;99099.17;101634;1253;1003029;-69
2023/03/12 06:08:55;;;;;;;10.90;6.50;;;;;;;-0.12;79.99;99097.98;103362;1256;96439;-69
2023/03/12 06:11:43;;;;;;;10.90;7.00;;;;;;;-0.12;80.08;99103.10;103179;1253;138120;-69
2023/03/12 06:14:30;;;;;;;17.20;7.60;;;;;;;-0.10;80.13;99105.13;103372;1255;108678;-70
2023/03/12 06:17:06;;;;;;;11.80;7.00;;;;;;;-0.08;80.11;99114.68;102563;1253;1003010;-70
2023/03/12 06:19:53;;;;;;;10.80;6.90;;;;;;;-0.07;80.02;99117.06;103304;1253;108857;-70
2023/03/12 06:22:41;;;;;;;11.40;6.50;;;;;;;-0.05;79.98;99117.04;103165;1256;97295;-70
2023/03/12 06:25:28;;;;;;;12.60;6.40;;;;;;;-0.01;79.90;99107.27;102365;1256;1002827;-69
2023/03/12 06:28:17;;;;;;;11.20;5.70;;;;;;;0.07;79.71;99114.06;102559;1256;1003607;-69
2023/03/12 06:31:06;;;;;;;8.20;6.00;;;;;;;0.26;79.31;99114.91;102441;1257;1002617;-70
2023/03/12 06:33:37;;;;;;;14.10;5.90;;;;;;;0.50;79.09;99122.05;103284;1253;108177;-70
2023/03/12 06:36:09;;;;;;;8.60;5.00;;;;;;;0.70;78.61;99124.94;103154;1253;138023;-70
2023/03/12 06:38:42;;;;;;;12.30;5.40;;;;;;;0.76;77.97;99119.07;103374;1252;109943;-69
2023/03/12 06:41:14;;;;;;;10.20;5.20;;;;;;;0.80;77.48;99122.09;103275;1256;107755;-69
2023/03/12 06:44:04;;;;;;;10.20;5.20;;;;;;;0.77;77.27;99137.70;103194;1256;96601;-68
2023/03/12 06:46:52;;;;;;;12.40;5.20;;;;;;;0.72;77.44;99142.36;102542;1253;1003775;-68
2023/03/12 06:49:40;;;;;;;10.70;5.10;;;;;;;0.66;77.39;99143.61;103116;1257;137999;-69
2023/03/12 06:52:28;;;;;;;11.30;5.20;;;;;;;0.62;77.56;99143.50;103267;1253;110060;-69
2023/03/12 06:55:15;;;;;;;11.10;5.40;;;;;;;0.60;77.66;99145.39;102901;1257;137981;-68
2023/03/12 06:58:03;;;;;;;12.00;5.60;;;;;;;0.62;77.76;99156.16;103218;1253;96489;-67
2023/03/12 07:00:50;;;;;;;9.20;5.50;;;;;;;0.60;77.60;99160.45;103210;1256;137606;-69
2023/03/12 07:03:38;;;;;;;10.40;5.70;;;;;;;0.57;77.65;99161.16;102523;1256;1002839;-70
2023/03/12 07:06:25;;;;;;;10.60;5.50;;;;;;;0.59;77.73;99164.39;103157;1258;137978;-69
2023/03/12 07:09:00;;;;;;;;;;;;;;;0.68;77.79;99171.13;103336;1256;106758;-69
2023/03/12 07:11:38;;;;;;;8.80;5.50;;;;;;;0.73;77.70;99169.05;102526;1254;1003589;-68
2023/03/12 07:14:13;;;;;;;;;;;;;;;1.37;78.44;99170.89;103272;1253;107801;-68
2023/03/12 07:17:01;;;;;;;8.20;5.30;;;;;;;2.58;76.44;99170.84;103327;1252;96424;-66
2023/03/12 07:19:48;;;;;;;9.60;4.80;;;;;;;2.60;74.71;99172.87;102501;1253;1002494;-67
2023/03/12 07:22:36;;;;;;;9.50;4.90;;;;;;;2.38;74.28;99175.64;103285;1256;108825;-65
2023/03/12 07:25:17;;;;;;;8.00;4.70;;;;;;;2.16;74.29;99179.23;103259;1253;137619;-67
2023/03/12 07:28:06;;;;;;;9.90;4.40;;;;;;;2.57;74.36;99174.12;103321;1254;107704;-69
2023/03/12 07:30:36;;;;;;;7.50;4.50;;;;;;;3.84;73.52;99171.94;103032;1253;138472;-68
2023/03/12 07:33:05;;;;;;;10.20;3.80;;;;;;;5.98;70.30;99160.77;103321;1256;109893;-68
2023/03/12 07:35:32;;;;;;;8.70;4.00;;;;;;;7.99;66.49;99155.49;103299;1253;107431;-66
2023/03/12 07:38:03;;;;;;;7.70;3.30;;;;;;;9.07;63.12;99154.05;103434;1256;96505;-67
2023/03/12 07:40:31;;;;;;;8.10;3.20;;;;;;;9.56;60.67;99156.86;103438;1256;107664;-67
2023/03/12 07:42:59;;;;;;;6.60;2.90;;;;;;;9.63;58.09;99154.30;103215;1253;137157;-68
2023/03/12 07:45:31;;;;;;;8.10;3.10;;;;;;;10.18;58.15;99168.05;103240;1257;109369;-68
2023/03/12 07:47:58;;;;;;;4.80;2.90;;;;;;;10.89;55.89;99168.05;103036;1256;137604;-66
2023/03/12 07:50:28;;;;;;;5.20;3.00;;;;;;;10.31;53.96;99167.08;103309;1256;96625;-69
2023/03/12 07:52:55;;;;;;;5.90;3.10;;;;;;;9.60;55.66;99177.85;103334;1253;107725;-66
2023/03/12 07:55:23;;;;;;;4.40;2.70;;;;;;;10.26;54.63;99173.42;103201;1254;137158;-67
2023/03/12 07:57:50;;;;;;;5.90;3.00;;;;;;;10.63;52.12;99172.99;103299;1253;109787;-69
2023/03/12 08:00:19;;;;;;;6.10;3.40;;;;;;;9.89;52.74;99182.42;103169;1252;137584;-69
2023/03/12 08:02:46;;;;;;;5.20;2.60;;;;;;;10.01;53.75;99185.69;103303;1253;96404;-70
2023/03/12 08:05:14;;;;;;;4.50;2.50;;;;;;;9.96;50.53;99174.31;103277;1253;107241;-70
2023/03/12 08:07:41;;;;;;;6.10;2.50;;;;;;;9.63;50.91;99193.20;103157;1256;137045;-69
2023/03/12 08:10:27;;;;;;;;;;;;;;;9.04;51.24;99193.34;103276;1253;108987;-69
2023/03/12 08:12:57;;;;;;;6.90;2.80;;;;;;;8.32;51.16;99183.46;103135;1252;123561;-70
2023/03/12 08:15:25;;;;;;;5.80;2.50;;;;;;;8.70;52.20;99191.50;103331;1256;96448;-70
2023/03/12 08:17:55;;;;;;;5.90;2.10;;;;;;;9.00;50.61;99199.08;103155;1256;138586;-69
2023/03/12 08:20:33;;;;;;;5.30;1.90;;;;;;;8.55;49.87;99204.41;103278;1253;96430;-69
2023/03/12 08:23:03;;;;;;;3.50;2.10;;;;;;;7.85;50.69;99214.54;103329;1253;110706;-70
2023/03/12 08:25:40;;;;;;;5.00;1.70;;;;;;;7.29;49.54;99195.86;103179;1253;137084;-70
2023/03/12 08:28:10;;;;;;;4.60;1.60;;;;;;;7.42;49.38;99212.67;103243;1253;96623;-69
2023/03/12 08:30:38;;;;;;;6.10;1.70;;;;;;;7.29;49.19;99221.61;103223;1256;136706;-70
2023/03/12 08:33:15;;;;;;;3.00;1.50;;;;;;;6.81;49.80;99231.38;103364;1253;96543;-69
2023/03/12 08:35:45;;;;;;;2.90;1.60;;;;;;;6.23;50.42;99230.79;103129;1253;137522;-70
2023/03/12 08:38:16;;;;;;;3.70;1.70;;;;;;;6.39;51.73;99235.65;103216;1257;106732;-69
2023/03/12 08:40:44;;;;;;;3.90;1.90;;;;;;;6.62;51.27;99228.38;102653;1256;1003246;-69
2023/03/12 08:43:11;;;;;;;4.10;1.40;;;;;;;6.45;50.11;99234.28;103150;1253;137043;-70
2023/03/12 08:45:39;;;;;;;3.90;1.50;;;;;;;6.15;50.13;99237.10;103538;1253;96442;-70
2023/03/12 08:48:27;;;;;;;6.30;1.60;;;;;;;5.62;50.22;99240.52;103427;1257;136721;-70
2023/03/12 08:51:04;;;;;;;4.00;1.90;;;;;;;5.27;51.58;99251.65;103283;1253;107614;-70
2023/03/12 08:53:40;;;;;;;3.50;1.50;;;;;;;5.68;52.29;99254.14;103233;1253;137064;-71
2023/03/12 08:56:09;;;;;;;4.30;1.50;;;;;;;7.08;51.85;99245.32;103393;1256;107768;-70
2023/03/12 08:58:36;;;;;;;4.60;1.70;;;;;;;7.68;50.01;99240.11;103338;1256;96447;-69
2023/03/12 09:01:07;;;;;;;3.60;1.70;;;;;;;8.00;48.98;99243.41;103240;1256;137214;-69
2023/03/12 09:03:46;;;;;;;2.80;1.40;;;;;;;8.03;46.85;99245.91;103248;1253;107011;-69
2023/03/12 09:06:15;;;;;;;2.30;1.20;;;;;;;7.87;46.56;99250.64;103243;1253;137685;-69
2023/03/12 09:08:43;;;;;;;2.40;1.40;;;;;;;7.53;46.76;99267.46;103272;1253;107348;-70
2023/03/12 09:11:12;;;;;;;2.70;1.30;;;;;;;8.00;45.87;99263.30;103151;1257;96706;-69
2023/03/12 09:13:40;;;;;;;3.90;1.30;;;;;;;8.54;45.42;99249.67;103073;1253;136949;-70
2023/03/12 09:16:28;;;;;;;3.00;1.30;;;;;;;8.73;44.45;99254.43;103289;1256;108837;-70
2023/03/12 09:18:55;;;;;;;5.50;1.20;;;;;;;8.22;44.04;99261.61;103144;1256;137164;-69
2023/03/12 09:21:23;;;;;;;2.80;1.40;;;;;;;7.51;43.80;99261.98;103379;1253;106658;-68
2023/03/12 09:23:50;;;;;;;3.10;1.50;;;;;;;6.92;44.76;99264.55;103267;1256;137187;-68
2023/03/12 09:26:18;;;;;;;4.00;1.50;;;;;;;6.48;45.76;99268.03;103141;1253;111359;-68
2023/03/12 09:28:45;;;;;;;5.70;1.90;;;;;;;6.55;47.08;99273.66;103104;1253;107186;-67
2023/03/12 09:31:18;;;;;;;4.50;1.90;;;;;;;6.61;46.94;99271.24;103159;1254;136876;-67
2023/03/12 09:33:46;;;;;;;4.80;1.80;;;;;;;6.70;46.92;99275.80;103130;1253;110635;-68
2023/03/12 09:36:32;;;;;;;;;;;;;;;6.74;47.29;99278.77;103274;1253;137043;-68
2023/03/12 09:38:59;;;;;;;4.30;1.50;;;;;;;7.10;47.67;99278.44;103280;1256;110095;-68
2023/03/12 09:41:29;;;;;;;4.20;2.10;;;;;;;7.36;47.73;99281.73;103287;1256;107847;-67
2023/03/12 09:44:02;;;;;;;5.50;1.90;;;;;;;7.69;47.38;99280.89;103147;1253;136909;-67
2023/03/12 09:46:37;;;;;;;5.70;2.20;;;;;;;7.83;47.12;99279.18;103412;1253;107307;-65
2023/03/12 09:49:11;;;;;;;5.00;1.70;;;;;;;7.76;47.28;99285.13;103226;1253;137156;-64
2023/03/12 09:51:43;;;;;;;4.00;1.70;;;;;;;7.59;46.74;99289.55;103664;1256;109911;-65
2023/03/12 09:54:25;;;;;;;3.20;1.60;;;;;;;7.31;45.98;99294.52;103269;1253;137276;-65
2023/03/12 09:57:11;;;;;;;4.60;2.10;;;;;;;6.98;46.66;99297.88;103349;1253;96361;-70
2023/03/12 09:59:47;;;;;;;4.80;1.50;;;;;;;6.70;46.87;99303.43;103484;1253;136888;-70
2023/03/12 10:03:05;;;;;;;5.80;2.20;;;;;;;6.37;46.57;99300.14;103285;1253;96512;-69
2023/03/12 10:05:43;;;;;;;3.00;1.90;;;;;;;5.85;45.88;99296.62;102119;1263;1015612;-69
2023/03/12 10:08:24;;;;;;;3.80;1.60;;;;;;;5.40;46.63;99306.80;102987;1262;106447;-69
2023/03/12 10:11:28;;;;;;;5.50;2.20;;;;;;;4.97;47.51;99315.65;102892;1259;96436;-69
2023/03/12 10:14:11;;;;;;;5.50;2.10;;;;;;;4.59;47.65;99312.94;102774;1259;136618;-69
2023/03/12 10:16:59;;;;;;;6.80;2.10;;;;;;;4.23;48.58;99325.59;101366;1259;1003075;-69
2023/03/12 10:19:48;;;;;;;4.40;1.90;;;;;;;4.05;49.37;99330.44;102768;1259;137235;-69
2023/03/12 10:22:31;;;;;;;4.40;2.10;;;;;;;3.90;49.86;99337.78;102788;1263;108254;-70
2023/03/12 10:25:16;;;;;;;7.90;2.20;;;;;;;3.75;50.29;99340.65;103274;1258;1002389;-70
2023/03/12 10:27:47;;;;;;;4.80;2.30;;;;;;;3.63;50.86;99343.98;102123;1259;1002939;-69
2023/03/12 10:30:22;;;;;;;4.30;2.10;;;;;;;3.49;50.95;99343.73;102736;1259;137495;-67
2023/03/12 10:33:03;;;;;;;6.00;2.20;;;;;;;3.41;51.67;99347.30;102864;1263;109468;-69
2023/03/12 10:35:52;;;;;;;7.10;2.70;;;;;;;3.48;51.91;99345.64;102650;1259;137772;-69
2023/03/12 10:38:39;;;;;;;5.50;2.10;;;;;;;3.57;52.23;99354.23;103199;1259;96326;-69
2023/03/12 10:41:23;;;;;;;4.80;1.80;;;;;;;3.60;51.93;99348.68;102790;1259;106856;-69
2023/03/12 10:44:06;;;;;;;8.50;1.90;;;;;;;3.58;50.37;99341.84;103241;1252;96500;-69
2023/03/12 10:46:46;;;;;;;6.20;1.90;;;;;;;3.51;50.62;99347.30;103323;1253;108797;-69
2023/03/12 10:49:36;;;;;;;5.00;1.80;;;;;;;3.41;50.50;99348.17;103222;1256;137828;-69
2023/03/12 10:52:24;;;;;;;6.50;2.00;;;;;;;3.30;50.87;99353.16;103353;1254;97038;-69
2023/03/12 10:54:55;;;;;;;4.40;2.00;;;;;;;3.22;51.24;99359.29;103251;1253;136756;-68
2023/03/12 10:57:43;;;;;;;6.10;1.90;;;;;;;3.32;51.65;99361.21;103276;1256;96453;-68
2023/03/12 11:00:32;;;;;;;4.00;1.70;;;;;;;3.45;51.62;99359.61;102417;1253;1002962;-68
2023/03/12 11:03:23;;;;;;;5.60;1.90;;;;;;;3.51;51.91;99367.91;103292;1253;108266;-69
2023/03/12 11:06:03;;;;;;;4.70;1.80;;;;;;;3.54;51.30;99363.05;103218;1253;137122;-69
2023/03/12 11:08:42;;;;;;;4.30;1.60;;;;;;;3.90;50.39;99367.89;103236;1256;107312;-70
2023/03/12 11:11:35;;;;;;;6.80;1.80;;;;;;;4.12;49.79;99357.30;103306;1256;98577;-71
2023/03/12 11:14:24;;;;;;;7.50;2.00;;;;;;;4.09;47.99;99358.73;103446;1252;110139;-71
2023/03/12 11:17:23;;;;;;;4.00;1.70;;;;;;;4.14;49.72;99375.85;103204;1257;108807;-70
2023/03/12 11:19:59;;;;;;;5.50;2.00;;;;;;;4.22;47.94;99374.81;103190;1253;136860;-67
2023/03/12 11:22:33;;;;;;;4.50;2.00;;;;;;;4.18;47.96;99374.57;103844;1253;107792;-68
2023/03/12 11:25:03;;;;;;;5.50;2.00;;;;;;;4.36;49.15;99378.66;103100;1253;136915;-68
2023/03/12 11:27:53;;;;;;;5.20;1.70;;;;;;;4.89;48.05;99372.67;103254;1258;109844;-68
2023/03/12 11:30:29;;;;;;;4.10;1.60;;;;;;;5.02;46.75;99363.76;102952;1256;137101;-70
2023/03/12 11:33:01;;;;;;;4.50;1.90;;;;;;;5.00;45.69;99357.61;103091;1256;96504;-69
2023/03/12 11:35:41;;;;;;;4.20;1.90;;;;;;;5.11;45.38;99367.69;103319;1254;107829;-69
2023/03/12 11:38:17;;;;;;;6.60;1.50;;;;;;;5.50;46.63;99372.92;103257;1253;96501;-70
2023/03/12 11:41:09;;;;;;;3.60;1.50;;;;;;;5.85;44.87;99364.59;103389;1256;109636;-68
2023/03/12 11:43:52;;;;;;;5.30;1.70;;;;;;;5.80;45.31;99374.55;103136;1253;137159;-67
2023/03/12 11:46:36;;;;;;;3.40;1.70;;;;;;;5.69;44.64;99372.58;103316;1256;96787;-68
2023/03/12 11:49:18;;;;;;;6.40;2.00;;;;;;;5.50;44.42;99376.53;103166;1253;137034;-68
2023/03/12 11:51:54;;;;;;;3.40;1.80;;;;;;;5.44;44.95;99384.63;103325;1256;96778;-68
2023/03/12 11:54:31;;;;;;;7.30;2.00;;;;;;;5.31;44.22;99380.99;103618;1256;136931;-69
2023/03/12 11:57:02;;;;;;;3.70;1.50;;;;;;;5.17;44.82;99383.73;103045;1256;107612;-69
2023/03/12 11:59:53;;;;;;;4.50;1.50;;;;;;;5.20;44.75;99385.56;103493;1253;96301;-70
2023/03/12 12:02:40;;;;;;;2.70;1.30;;;;;;;5.04;44.51;99384.04;103192;1253;108240;-70
2023/03/12 12:05:39;;;;;;;4.70;1.80;;;;;;;4.88;45.26;99385.11;103221;1256;96556;-68
2023/03/12 12:08:32;;;;;;;3.10;1.60;;;;;;;4.93;44.70;99388.61;103271;1253;109937;-72